createdAt,value
2018-11-29T00:00:21.336Z,4.83
2018-11-29T00:04:28.906Z,4.47
2018-11-29T00:08:53.305Z,5.33
2018-11-29T00:13:00.489Z,5.00
2018-11-29T00:17:06.800Z,4.60
2018-11-29T00:21:13.918Z,4.87
2018-11-29T00:25:21.979Z,4.42
2018-11-29T00:29:29.371Z,4.90
2018-11-29T00:33:37.509Z,4.80
2018-11-29T00:37:44.023Z,4.45
2018-11-29T00:41:51.012Z,5.10
2018-11-29T00:45:57.975Z,4.90
2018-11-29T00:50:04.956Z,4.27
2018-11-29T00:54:12.551Z,4.62
2018-11-29T00:58:19.400Z,4.00
2018-11-29T01:02:27.320Z,4.67
2018-11-29T01:06:33.886Z,4.00
2018-11-29T01:10:41.892Z,4.90
2018-11-29T01:14:49.114Z,4.62
2018-11-29T01:18:55.993Z,4.53
2018-11-29T01:23:03.081Z,4.10
2018-11-29T01:27:10.097Z,4.60
2018-11-29T01:31:17.286Z,3.93
2018-11-29T01:35:24.327Z,4.77
2018-11-29T01:39:31.609Z,4.70
2018-11-29T01:43:39.052Z,4.53
2018-11-29T01:47:47.085Z,4.20
2018-11-29T01:51:54.276Z,3.87
2018-11-29T01:56:01.882Z,11.00
2018-11-29T02:00:09.781Z,6.70
2018-11-29T02:04:17.472Z,5.65
2018-11-29T02:08:24.675Z,4.25
2018-11-29T02:12:32.329Z,4.50
2018-11-29T02:16:39.353Z,4.47
2018-11-29T02:20:47.280Z,5.10
2018-11-29T02:24:54.612Z,3.73
2018-11-29T02:29:01.514Z,4.40
2018-11-29T02:33:08.190Z,3.73
2018-11-29T02:37:15.420Z,4.33
2018-11-29T02:41:22.601Z,3.70
2018-11-29T02:45:29.837Z,3.90
2018-11-29T02:49:36.575Z,4.47
2018-11-29T02:53:43.450Z,4.33
2018-11-29T02:57:51.297Z,4.12
2018-11-29T03:01:58.756Z,4.20
2018-11-29T03:06:06.635Z,4.20
2018-11-29T03:10:14.070Z,3.97
2018-11-29T03:14:22.510Z,3.57
2018-11-29T03:18:29.374Z,3.43
2018-11-29T03:22:36.137Z,3.23
2018-11-29T03:26:42.959Z,3.47
2018-11-29T03:30:49.782Z,4.00
2018-11-29T03:34:56.172Z,3.52
2018-11-29T03:39:03.340Z,3.57
2018-11-29T03:43:11.317Z,3.15
2018-11-29T03:47:18.711Z,3.70
2018-11-29T03:51:25.276Z,3.87
2018-11-29T03:55:32.328Z,2.70
2018-11-29T03:59:38.951Z,3.47
2018-11-29T04:03:46.276Z,3.70
2018-11-29T04:07:53.147Z,4.17
2018-11-29T04:12:00.407Z,3.20
2018-11-29T04:16:07.467Z,4.03
2018-11-29T04:20:14.202Z,4.57
2018-11-29T04:24:21.330Z,3.60
2018-11-29T04:28:27.896Z,3.65
2018-11-29T04:32:34.841Z,4.40
2018-11-29T04:36:41.405Z,4.25
2018-11-29T04:40:48.647Z,4.42
2018-11-29T04:44:56.090Z,4.10
2018-11-29T04:49:03.050Z,3.70
2018-11-29T04:53:09.740Z,4.77
2018-11-29T04:57:16.307Z,4.20
2018-11-29T05:01:27.930Z,4.00
2018-11-29T05:05:34.634Z,4.15
2018-11-29T05:09:42.012Z,4.10
2018-11-29T05:13:49.050Z,4.58
2018-11-29T05:17:55.983Z,4.73
2018-11-29T05:22:03.247Z,4.63
2018-11-29T05:26:10.058Z,3.77
2018-11-29T05:30:16.920Z,5.00
2018-11-29T05:34:24.589Z,3.87
2018-11-29T05:38:30.670Z,4.20
2018-11-29T05:42:37.393Z,5.40
2018-11-29T05:46:44.133Z,5.40
2018-11-29T05:50:50.554Z,4.63
2018-11-29T05:54:57.109Z,5.13
2018-11-29T05:59:04.919Z,4.53
2018-11-29T06:03:12.500Z,4.63
2018-11-29T06:07:19.621Z,4.43
2018-11-29T06:11:26.435Z,4.20
2018-11-29T06:15:33.357Z,4.97
2018-11-29T06:19:39.937Z,5.00
2018-11-29T06:23:46.437Z,5.17
2018-11-29T06:27:52.743Z,5.55
2018-11-29T06:32:00.248Z,6.17
2018-11-29T06:36:06.926Z,5.27
2018-11-29T06:40:13.774Z,5.30
2018-11-29T06:44:20.496Z,5.10
2018-11-29T06:48:27.325Z,5.50
2018-11-29T06:52:34.040Z,5.20
2018-11-29T06:56:41.244Z,4.80
2018-11-29T07:00:48.294Z,5.72
2018-11-29T07:04:55.200Z,5.50
2018-11-29T07:09:02.157Z,5.53
2018-11-29T07:13:09.563Z,6.20
2018-11-29T07:17:16.886Z,5.57
2018-11-29T07:21:23.457Z,5.97
2018-11-29T07:25:30.578Z,5.90
2018-11-29T07:29:37.607Z,6.30
2018-11-29T07:33:44.729Z,5.57
2018-11-29T07:37:50.999Z,6.33
2018-11-29T07:41:58.250Z,5.73
2018-11-29T07:46:05.671Z,6.80
2018-11-29T07:50:12.078Z,5.77
2018-11-29T07:54:19.208Z,6.50
2018-11-29T07:58:26.615Z,10.47
2018-11-29T08:02:33.232Z,8.13
2018-11-29T08:06:40.479Z,7.60
2018-11-29T08:10:47.485Z,8.40
2018-11-29T08:14:54.343Z,8.60
2018-11-29T08:19:01.104Z,8.50
2018-11-29T08:23:08.046Z,8.20
2018-11-29T08:27:14.483Z,9.30
2018-11-29T08:31:20.723Z,7.57
2018-11-29T08:35:27.494Z,7.47
2018-11-29T08:39:36.388Z,8.08
2018-11-29T08:43:42.639Z,6.73
2018-11-29T08:47:49.155Z,7.10
2018-11-29T08:51:55.821Z,7.30
2018-11-29T08:56:02.731Z,6.95
2018-11-29T09:00:10.179Z,7.00
2018-11-29T09:04:18.117Z,6.63
2018-11-29T09:08:24.875Z,7.10
2018-11-29T09:12:32.051Z,6.75
2018-11-29T09:16:38.872Z,6.72
2018-11-29T09:20:45.795Z,8.15
2018-11-29T09:24:53.890Z,9.03
2018-11-29T09:29:00.700Z,9.40
2018-11-29T09:33:08.310Z,11.73
2018-11-29T09:37:15.577Z,14.13
2018-11-29T09:41:22.784Z,81.70
2018-11-29T09:45:30.110Z,61.28
2018-11-29T09:49:37.172Z,53.65
2018-11-29T09:53:43.984Z,42.17
2018-11-29T09:57:55.135Z,35.93
2018-11-29T10:02:02.002Z,29.97
2018-11-29T10:06:08.568Z,24.40
2018-11-29T10:10:15.710Z,20.37
2018-11-29T10:14:22.656Z,19.00
2018-11-29T10:26:37.024Z,13.80
2018-11-29T10:30:45.702Z,12.45
2018-11-29T10:34:52.703Z,11.80
2018-11-29T10:38:59.431Z,11.65
2018-11-29T10:43:07.022Z,11.53
2018-11-29T10:47:14.897Z,13.43
2018-11-29T10:51:21.661Z,12.97
2018-11-29T10:55:28.696Z,14.07
2018-11-29T10:59:37.118Z,14.68
2018-11-29T11:03:44.416Z,14.77
2018-11-29T11:07:51.408Z,15.88
2018-11-29T11:11:58.524Z,15.18
2018-11-29T11:16:05.518Z,15.08
2018-11-29T11:20:12.306Z,15.03
2018-11-29T11:24:19.188Z,14.13
2018-11-29T11:28:25.904Z,14.70
2018-11-29T11:32:33.072Z,13.03
2018-11-29T11:36:39.832Z,13.38
2018-11-29T11:40:46.659Z,13.50
2018-11-29T11:44:53.870Z,14.50
2018-11-29T11:49:01.342Z,12.47
2018-11-29T11:53:08.268Z,15.93
2018-11-29T11:57:15.179Z,12.00
2018-11-29T12:01:21.988Z,13.90
2018-11-29T12:05:28.386Z,12.98
2018-11-29T12:09:35.411Z,15.83
2018-11-29T12:13:42.632Z,12.23
2018-11-29T12:17:51.466Z,11.77
2018-11-29T12:21:58.545Z,14.18
2018-11-29T12:26:05.909Z,12.28
2018-11-29T12:30:13.017Z,14.33
2018-11-29T12:34:20.304Z,13.10
2018-11-29T12:38:26.791Z,16.00
2018-11-29T12:42:34.015Z,16.37
2018-11-29T12:46:41.725Z,14.90
2018-11-29T12:50:48.771Z,15.40
2018-11-29T12:54:56.019Z,16.70
2018-11-29T12:59:03.310Z,14.00
2018-11-29T13:03:10.205Z,14.50
2018-11-29T13:07:17.460Z,14.50
2018-11-29T13:11:23.876Z,13.30
2018-11-29T13:15:30.873Z,14.30
2018-11-29T13:19:38.867Z,16.90
2018-11-29T13:23:46.431Z,14.00
2018-11-29T13:27:53.554Z,14.97
2018-11-29T13:32:00.740Z,12.20
2018-11-29T13:36:07.243Z,10.73
2018-11-29T13:40:14.191Z,11.80
2018-11-29T13:44:21.090Z,10.87
2018-11-29T13:48:28.877Z,11.60
2018-11-29T13:52:35.528Z,11.07
2018-11-29T13:56:41.995Z,10.72
2018-11-29T14:00:49.381Z,10.90
2018-11-29T14:04:57.865Z,10.00
2018-11-29T14:09:05.224Z,11.93
2018-11-29T14:13:12.523Z,11.00
2018-11-29T14:17:20.079Z,9.37
2018-11-29T14:21:26.889Z,9.90
2018-11-29T14:25:34.089Z,14.80
2018-11-29T14:29:40.971Z,82.30
2018-11-29T14:33:47.561Z,192.57
2018-11-29T14:37:54.360Z,57.60
2018-11-29T14:42:04.025Z,26.57
2018-11-29T14:46:11.047Z,19.30
2018-11-29T14:50:18.564Z,18.00
2018-11-29T14:54:26.450Z,17.07
2018-11-29T14:58:33.390Z,20.07
2018-11-29T15:02:40.970Z,21.23
2018-11-29T15:06:47.569Z,19.23
2018-11-29T15:10:54.385Z,19.30
2018-11-29T15:15:01.316Z,15.53
2018-11-29T15:19:08.062Z,15.47
2018-11-29T15:23:15.053Z,19.40
2018-11-29T15:27:22.206Z,17.75
2018-11-29T15:31:28.880Z,17.50
2018-11-29T15:35:35.947Z,16.40
2018-11-29T15:39:42.892Z,13.47
2018-11-29T15:43:49.149Z,15.10
2018-11-29T15:47:55.369Z,12.63
2018-11-29T15:52:02.333Z,14.43
2018-11-29T15:56:09.213Z,13.38
2018-11-29T16:00:16.914Z,12.50
2018-11-29T16:04:23.356Z,10.70
2018-11-29T16:08:30.447Z,14.23
2018-11-29T16:12:38.467Z,14.20
2018-11-29T16:16:45.887Z,14.00
2018-11-29T16:20:52.746Z,14.50
2018-11-29T16:24:59.450Z,13.10
2018-11-29T16:29:06.776Z,11.67
2018-11-29T16:33:14.037Z,12.90
2018-11-29T16:37:20.561Z,9.87
2018-11-29T16:41:27.645Z,11.43
2018-11-29T16:45:36.580Z,10.55
2018-11-29T16:49:44.971Z,15.27
2018-11-29T16:53:52.438Z,12.50
2018-11-29T16:57:59.478Z,10.10
2018-11-29T17:02:06.149Z,12.85
2018-11-29T17:06:14.542Z,13.43
2018-11-29T17:10:23.859Z,15.18
2018-11-29T17:14:33.424Z,13.33
2018-11-29T17:18:40.731Z,10.30
2018-11-29T17:22:48.741Z,12.80
2018-11-29T17:26:56.059Z,9.60
2018-11-29T17:31:03.497Z,9.25
2018-11-29T17:35:10.486Z,9.77
2018-11-29T17:39:17.659Z,11.67
2018-11-29T17:43:26.446Z,8.00
2018-11-29T17:47:35.044Z,10.80
2018-11-29T17:51:41.694Z,9.33
2018-11-29T17:55:49.041Z,9.90
2018-11-29T17:59:55.629Z,8.78
2018-11-29T18:04:02.591Z,8.73
2018-11-29T18:08:10.754Z,7.93
2018-11-29T18:12:17.653Z,8.33
2018-11-29T18:16:24.738Z,8.18
2018-11-29T18:20:31.758Z,7.70
2018-11-29T18:24:38.439Z,8.37
2018-11-29T18:28:45.567Z,7.45
2018-11-29T18:32:56.812Z,8.80
2018-11-29T18:37:03.517Z,8.30
2018-11-29T18:41:10.914Z,9.03
2018-11-29T18:45:18.385Z,6.63
2018-11-29T18:49:25.220Z,7.77
2018-11-29T18:53:31.960Z,7.50
2018-11-29T18:57:39.174Z,7.20
2018-11-29T19:01:45.947Z,7.57
2018-11-29T19:05:52.497Z,7.67
2018-11-29T19:09:59.177Z,7.40
2018-11-29T19:14:06.392Z,7.77
2018-11-29T19:18:13.287Z,7.93
2018-11-29T19:22:20.562Z,8.30
2018-11-29T19:26:27.612Z,8.30
2018-11-29T19:30:37.174Z,7.83
2018-11-29T19:34:43.845Z,6.77
2018-11-29T19:38:51.131Z,7.93
2018-11-29T19:42:57.517Z,6.90
2018-11-29T19:47:04.988Z,8.83
2018-11-29T19:51:12.544Z,7.33
2018-11-29T19:55:19.721Z,7.63
2018-11-29T19:59:27.028Z,7.70
2018-11-29T20:03:34.129Z,6.20
2018-11-29T20:07:41.225Z,8.65
2018-11-29T20:11:48.182Z,7.10
2018-11-29T20:15:55.117Z,8.53
2018-11-29T20:20:13.139Z,8.60
2018-11-29T20:24:21.085Z,7.70
2018-11-29T20:28:31.463Z,7.65
2018-11-29T20:32:48.094Z,7.27
2018-11-29T20:37:04.705Z,6.70
2018-11-29T20:41:23.939Z,7.07
2018-11-29T20:45:30.870Z,7.07
2018-11-29T20:49:37.748Z,7.58
2018-11-29T20:53:44.925Z,8.20
2018-11-29T20:57:52.257Z,7.13
2018-11-29T21:01:59.977Z,5.57
2018-11-29T21:06:06.896Z,7.80
2018-11-29T21:10:14.642Z,7.40
2018-11-29T21:14:22.323Z,6.47
2018-11-29T21:23:01.668Z,6.53
2018-11-29T21:27:09.946Z,6.87
2018-11-29T21:31:17.555Z,6.27
2018-11-29T21:35:24.793Z,6.77
2018-11-29T21:39:32.422Z,6.00
2018-11-29T21:43:40.982Z,6.43
2018-11-29T21:47:50.086Z,6.77
2018-11-29T21:51:57.426Z,6.00
2018-11-29T21:56:04.083Z,6.92
2018-11-29T22:00:11.989Z,5.60
2018-11-29T22:04:21.788Z,5.87
2018-11-29T22:08:30.988Z,6.80
2018-11-29T22:12:42.135Z,5.50
2018-11-29T22:16:49.304Z,5.85
2018-11-29T22:20:57.320Z,5.83
2018-11-29T22:25:04.821Z,4.53
2018-11-29T22:29:12.634Z,6.10
2018-11-29T22:33:19.449Z,6.20
2018-11-29T22:37:27.227Z,6.00
2018-11-29T22:41:35.755Z,6.30
2018-11-29T22:45:44.990Z,5.10
2018-11-29T22:49:52.323Z,6.30
2018-11-29T22:53:58.942Z,6.07
2018-11-29T23:02:30.356Z,7.63
2018-11-29T23:06:39.033Z,6.20
2018-11-29T23:10:53.310Z,7.10
2018-11-29T23:15:10.149Z,10.93
2018-11-29T23:19:27.468Z,7.13
2018-11-29T23:23:38.533Z,7.15
2018-11-29T23:32:08.993Z,8.55
2018-11-29T23:36:26.119Z,14.10
2018-11-29T23:40:37.848Z,12.40
2018-11-29T23:44:45.657Z,13.40
2018-11-29T23:48:53.187Z,10.93
2018-11-29T23:53:00.065Z,8.53
2018-11-29T23:57:07.632Z,7.08
